createdAt,value
2019-04-10T00:00:57.843Z,23.00
2019-04-10T00:03:36.730Z,23.23
2019-04-10T00:06:04.595Z,24.90
2019-04-10T00:08:38.632Z,23.37
2019-04-10T00:11:10.142Z,24.07
2019-04-10T00:13:41.490Z,23.63
2019-04-10T00:16:11.917Z,24.67
2019-04-10T00:18:44.323Z,26.33
2019-04-10T00:21:17.664Z,26.50
2019-04-10T00:23:47.908Z,27.37
2019-04-10T00:26:28.483Z,27.00
2019-04-10T00:29:08.830Z,25.83
2019-04-10T00:31:38.473Z,25.60
2019-04-10T00:34:09.810Z,25.33
2019-04-10T00:36:39.543Z,24.70
2019-04-10T00:39:12.870Z,22.97
2019-04-10T00:41:51.008Z,24.33
2019-04-10T00:44:34.135Z,22.63
2019-04-10T00:47:04.548Z,22.67
2019-04-10T00:49:39.959Z,24.30
2019-04-10T00:52:12.811Z,21.60
2019-04-10T00:54:45.234Z,21.67
2019-04-10T00:57:22.011Z,23.10
2019-04-10T00:59:55.114Z,22.40
2019-04-10T01:02:29.150Z,22.37
2019-04-10T01:05:03.498Z,20.77
2019-04-10T01:07:40.972Z,22.43
2019-04-10T01:10:16.110Z,19.70
2019-04-10T01:12:48.156Z,21.00
2019-04-10T01:15:26.650Z,21.23
2019-04-10T01:17:59.718Z,20.43
2019-04-10T01:20:31.288Z,19.23
2019-04-10T01:23:01.497Z,20.77
2019-04-10T01:25:34.599Z,20.97
2019-04-10T01:28:08.768Z,20.30
2019-04-10T01:30:40.492Z,20.20
2019-04-10T01:33:16.603Z,20.77
2019-04-10T01:35:47.227Z,19.53
2019-04-10T01:38:19.678Z,20.97
2019-04-10T01:40:55.582Z,18.10
2019-04-10T01:43:28.857Z,18.73
2019-04-10T01:46:00.013Z,17.83
2019-04-10T01:48:30.295Z,18.03
2019-04-10T01:51:07.309Z,18.77
2019-04-10T01:53:38.913Z,17.90
2019-04-10T01:56:22.851Z,19.33
2019-04-10T01:58:51.827Z,18.37
2019-04-10T02:01:40.780Z,18.63
2019-04-10T02:04:12.258Z,17.80
2019-04-10T02:06:55.909Z,19.47
2019-04-10T02:09:29.760Z,18.97
2019-04-10T02:12:04.087Z,18.37
2019-04-10T02:14:38.578Z,18.07
2019-04-10T02:17:10.462Z,20.57
2019-04-10T02:19:42.724Z,19.80
2019-04-10T02:22:17.223Z,17.97
2019-04-10T02:24:47.492Z,19.77
2019-04-10T02:27:22.407Z,19.20
2019-04-10T02:29:53.161Z,19.73
2019-04-10T02:32:26.308Z,20.47
2019-04-10T02:35:03.654Z,19.27
2019-04-10T02:37:49.352Z,18.77
2019-04-10T02:40:19.267Z,20.23
2019-04-10T02:42:51.346Z,19.40
2019-04-10T02:45:26.741Z,22.47
2019-04-10T02:48:04.114Z,21.83
2019-04-10T02:50:45.133Z,23.67
2019-04-10T02:53:35.165Z,23.93
2019-04-10T02:56:08.351Z,23.23
2019-04-10T02:58:40.269Z,22.93
2019-04-10T03:01:19.655Z,24.63
2019-04-10T03:03:55.532Z,25.20
2019-04-10T03:06:28.955Z,24.20
2019-04-10T03:09:19.114Z,25.17
2019-04-10T03:11:39.677Z,25.03
2019-04-10T03:14:12.705Z,26.33
2019-04-10T03:16:46.607Z,28.00
2019-04-10T03:19:22.011Z,28.40
2019-04-10T03:21:53.449Z,29.30
2019-04-10T03:24:25.642Z,28.93
2019-04-10T03:27:05.778Z,28.53
2019-04-10T03:29:40.632Z,29.83
2019-04-10T03:32:36.249Z,28.13
2019-04-10T03:35:18.627Z,31.50
2019-04-10T03:37:52.907Z,28.40
2019-04-10T03:40:25.126Z,31.80
2019-04-10T03:42:57.197Z,30.20
2019-04-10T03:45:36.904Z,28.50
2019-04-10T03:48:08.508Z,29.93
2019-04-10T03:50:43.670Z,31.33
2019-04-10T03:53:16.785Z,29.33
2019-04-10T03:56:23.451Z,27.73
2019-04-10T03:58:54.591Z,30.07
2019-04-10T04:01:29.902Z,31.03
2019-04-10T04:04:01.536Z,29.73
2019-04-10T04:44:29.300Z,28.67
2019-04-10T04:47:03.394Z,35.03
2019-04-10T04:49:35.792Z,36.60
2019-04-10T04:52:11.212Z,33.85
2019-04-10T04:54:41.836Z,35.05
2019-04-10T04:57:20.426Z,36.20
2019-04-10T04:59:48.270Z,32.90
2019-04-10T05:02:32.167Z,30.03
2019-04-10T05:05:04.480Z,30.87
2019-04-10T05:07:39.611Z,30.30
2019-04-10T06:13:20.474Z,29.07
2019-04-10T06:16:01.446Z,29.80
2019-04-10T06:18:38.206Z,28.67
2019-04-10T06:21:07.966Z,28.93
2019-04-10T06:23:44.614Z,30.07
2019-04-10T06:26:16.507Z,33.20
2019-04-10T06:28:50.479Z,35.43
2019-04-10T06:31:22.910Z,34.50
2019-04-10T06:33:53.559Z,35.63
2019-04-10T06:36:23.273Z,34.18
2019-04-10T06:38:55.307Z,35.88
2019-04-10T06:41:24.909Z,36.33
2019-04-10T06:43:57.211Z,30.13
2019-04-10T06:46:28.537Z,33.88
2019-04-10T06:48:58.842Z,35.08
2019-04-10T06:51:33.537Z,33.90
2019-04-10T06:54:11.323Z,34.20
2019-04-10T06:56:48.368Z,34.60
2019-04-10T06:59:21.226Z,33.95
2019-04-10T07:01:54.522Z,34.53
2019-04-10T07:04:25.148Z,34.63
2019-04-10T07:07:01.838Z,33.73
2019-04-10T07:09:27.172Z,32.78
2019-04-10T07:49:32.989Z,30.83
2019-04-10T07:52:03.628Z,31.20
2019-04-10T07:54:37.161Z,32.07
2019-04-10T07:57:06.777Z,31.13
2019-04-10T07:59:37.923Z,29.57
2019-04-10T08:02:12.392Z,31.70
2019-04-10T08:04:46.000Z,30.63
2019-04-10T08:07:29.824Z,29.03
2019-04-10T08:09:54.157Z,30.10
2019-04-10T08:12:32.415Z,30.67
2019-04-10T08:14:56.553Z,31.07
2019-04-10T08:17:26.623Z,36.48
2019-04-10T08:19:57.265Z,34.93
2019-04-10T08:22:32.755Z,35.70
2019-04-10T08:25:04.609Z,38.02
2019-04-10T08:27:38.471Z,38.42
2019-04-10T08:30:12.154Z,37.60
2019-04-10T08:32:54.918Z,38.00
2019-04-10T08:35:17.441Z,38.50
2019-04-10T08:37:53.830Z,37.90
2019-04-10T08:58:06.178Z,30.30
2019-04-10T09:00:36.998Z,30.93
2019-04-10T09:03:08.744Z,31.00
2019-04-10T09:05:38.822Z,32.30
2019-04-10T09:18:06.195Z,32.33
2019-04-10T09:20:39.186Z,32.10
2019-04-10T09:23:21.786Z,31.27
2019-04-10T09:33:21.955Z,36.85
2019-04-10T09:35:47.515Z,33.10
2019-04-10T09:38:18.833Z,32.33
2019-04-10T09:40:50.267Z,33.07
2019-04-10T09:43:21.249Z,33.73
2019-04-10T09:45:51.588Z,33.13
2019-04-10T09:48:22.307Z,33.33
2019-04-10T09:58:29.946Z,39.53
2019-04-10T10:06:25.180Z,33.87
2019-04-10T10:08:54.575Z,33.63
2019-04-10T10:11:28.615Z,34.63
2019-04-10T10:14:01.906Z,35.17
2019-04-10T10:16:38.558Z,33.60
2019-04-10T10:19:10.121Z,35.80
2019-04-10T10:21:41.423Z,35.80
2019-04-10T10:24:24.689Z,33.20
2019-04-10T10:26:57.762Z,35.70
2019-04-10T10:29:33.551Z,35.63
2019-04-10T10:32:05.649Z,34.90
2019-04-10T10:34:36.641Z,36.80
2019-04-10T10:37:18.691Z,42.13
2019-04-10T10:39:52.841Z,42.97
2019-04-10T10:42:24.361Z,42.88
2019-04-10T10:44:54.577Z,43.20
2019-04-10T10:47:26.290Z,43.30
2019-04-10T10:50:01.069Z,36.23
2019-04-10T10:52:35.365Z,35.27
2019-04-10T10:55:14.047Z,33.20
2019-04-10T10:57:44.707Z,35.93
2019-04-10T11:00:16.987Z,36.83
2019-04-10T11:02:47.750Z,36.80
2019-04-10T11:05:19.048Z,37.20
2019-04-10T11:07:53.101Z,36.57
2019-04-10T11:10:27.460Z,37.20
2019-04-10T11:13:03.878Z,35.70
2019-04-10T11:15:34.183Z,35.27
2019-04-10T11:18:05.350Z,36.10
2019-04-10T11:20:49.942Z,37.70
2019-04-10T11:23:33.801Z,34.70
2019-04-10T11:26:15.995Z,37.20
2019-04-10T11:28:47.948Z,35.97
2019-04-10T11:31:25.183Z,36.37
2019-04-10T11:33:56.916Z,35.17
2019-04-10T11:36:30.065Z,36.27
2019-04-10T11:39:13.847Z,37.27
2019-04-10T11:41:45.633Z,35.37
2019-04-10T11:44:19.939Z,36.43
2019-04-10T11:47:06.456Z,37.57
2019-04-10T11:49:45.142Z,41.48
2019-04-10T11:52:31.186Z,43.15
2019-04-10T11:54:56.643Z,43.57
2019-04-10T11:57:37.331Z,37.37
2019-04-10T12:00:12.234Z,35.03
2019-04-10T12:02:49.389Z,34.43
2019-04-10T12:05:28.711Z,34.50
2019-04-10T12:13:28.518Z,33.80
2019-04-10T12:15:59.616Z,35.63
2019-04-10T12:18:33.228Z,34.60
2019-04-10T12:21:05.232Z,34.13
2019-04-10T12:23:36.802Z,35.67
2019-04-10T12:26:09.742Z,35.20
2019-04-10T12:28:42.372Z,37.30
2019-04-10T12:31:26.073Z,35.03
2019-04-10T12:34:00.463Z,36.40
2019-04-10T12:36:38.561Z,35.17
2019-04-10T12:39:11.997Z,34.67
2019-04-10T12:41:41.680Z,35.33
2019-04-10T12:44:18.785Z,35.50
2019-04-10T12:46:55.507Z,35.33
2019-04-10T12:52:00.297Z,33.97
2019-04-10T12:54:34.179Z,34.23
2019-04-10T12:57:12.724Z,35.37
2019-04-10T12:59:52.062Z,34.47
2019-04-10T13:02:23.433Z,34.17
2019-04-10T13:04:56.654Z,33.30
2019-04-10T13:07:27.879Z,33.37
2019-04-10T13:10:02.460Z,32.87
2019-04-10T13:12:35.492Z,33.90
2019-04-10T13:15:07.747Z,33.60
2019-04-10T13:17:38.610Z,33.80
2019-04-10T13:20:11.472Z,34.60
2019-04-10T13:22:43.093Z,33.13
2019-04-10T13:25:14.224Z,32.87
2019-04-10T13:27:45.148Z,32.47
2019-04-10T13:30:21.148Z,33.67
2019-04-10T13:32:51.930Z,38.15
2019-04-10T13:35:30.241Z,35.33
2019-04-10T13:38:04.119Z,39.78
2019-04-10T13:40:39.534Z,32.90
2019-04-10T13:43:09.811Z,32.73
2019-04-10T13:45:43.746Z,33.13
2019-04-10T13:58:17.252Z,34.43
2019-04-10T14:00:49.762Z,39.95
2019-04-10T14:03:22.873Z,40.12
2019-04-10T14:06:03.652Z,40.80
2019-04-10T14:08:56.042Z,40.30
2019-04-10T14:11:15.622Z,40.77
2019-04-10T14:13:46.786Z,41.55
2019-04-10T14:16:17.041Z,42.65
2019-04-10T14:18:50.874Z,41.42
2019-04-10T14:21:20.760Z,41.45
2019-04-10T14:23:51.353Z,41.53
2019-04-10T14:26:46.767Z,38.85
2019-04-10T14:29:16.391Z,36.37
2019-04-10T14:39:22.900Z,32.60
2019-04-10T14:41:53.936Z,34.57
2019-04-10T14:44:24.642Z,34.40
2019-04-10T14:46:54.955Z,34.07
2019-04-10T14:49:24.989Z,36.90
2019-04-10T14:51:54.781Z,36.00
2019-04-10T14:54:39.892Z,36.60
2019-04-10T14:57:10.617Z,37.70
2019-04-10T14:59:40.392Z,36.80
2019-04-10T15:02:10.664Z,36.07
2019-04-10T15:04:39.970Z,36.90
2019-04-10T15:07:12.271Z,37.07
2019-04-10T15:09:41.515Z,38.33
2019-04-10T15:12:10.703Z,34.80
2019-04-10T15:14:40.144Z,36.97
2019-04-10T15:17:09.802Z,36.93
2019-04-10T15:19:40.536Z,36.10
2019-04-10T15:22:11.670Z,36.27
2019-04-10T15:24:41.098Z,36.27
2019-04-10T15:27:11.516Z,36.03
2019-04-10T15:29:41.244Z,38.27
2019-04-10T15:32:12.677Z,36.10
2019-04-10T15:34:41.959Z,38.27
2019-04-10T15:37:11.441Z,37.23
2019-04-10T15:39:42.154Z,37.73
2019-04-10T15:42:16.868Z,39.30
2019-04-10T15:44:46.630Z,37.60
2019-04-10T15:47:22.171Z,35.63
2019-04-10T15:49:49.376Z,37.23
2019-04-10T15:52:20.164Z,37.13
2019-04-10T15:54:53.388Z,39.33
2019-04-10T15:57:22.814Z,39.20
2019-04-10T15:59:52.584Z,39.93
2019-04-10T16:02:23.867Z,45.63
2019-04-10T16:04:55.453Z,40.60
2019-04-10T16:07:27.452Z,39.20
2019-04-10T16:10:06.590Z,38.77
2019-04-10T16:12:36.314Z,39.40
2019-04-10T16:15:06.119Z,36.63
2019-04-10T16:17:46.552Z,39.20
2019-04-10T16:20:29.945Z,38.40
2019-04-10T16:23:21.841Z,40.80
2019-04-10T16:25:54.448Z,39.47
2019-04-10T16:28:24.443Z,39.83
2019-04-10T16:30:55.446Z,38.70
2019-04-10T16:33:25.831Z,39.50
2019-04-10T16:35:55.088Z,39.03
2019-04-10T16:38:26.711Z,40.10
2019-04-10T16:40:56.772Z,41.33
2019-04-10T16:43:28.515Z,44.17
2019-04-10T16:45:59.364Z,37.87
2019-04-10T16:48:29.786Z,39.30
2019-04-10T16:50:59.751Z,39.63
2019-04-10T16:53:30.172Z,43.37
2019-04-10T16:56:01.025Z,43.87
2019-04-10T16:58:30.611Z,38.57
2019-04-10T17:01:04.396Z,43.63
2019-04-10T17:03:35.951Z,38.63
2019-04-10T17:06:06.096Z,42.13
2019-04-10T17:08:37.351Z,40.90
2019-04-10T17:11:09.193Z,43.27
2019-04-10T17:13:40.445Z,40.70
2019-04-10T17:16:10.292Z,40.67
2019-04-10T17:18:39.734Z,41.37
2019-04-10T17:21:09.207Z,40.83
2019-04-10T17:23:39.001Z,42.53
2019-04-10T17:26:09.024Z,42.73
2019-04-10T17:28:40.715Z,42.07
2019-04-10T17:31:14.640Z,41.13
2019-04-10T17:33:45.919Z,41.33
2019-04-10T17:36:16.938Z,42.40
2019-04-10T17:38:46.990Z,41.93
2019-04-10T17:41:19.678Z,44.40
2019-04-10T17:43:49.594Z,42.40
2019-04-10T17:46:19.408Z,42.37
2019-04-10T17:48:49.625Z,42.93
2019-04-10T17:51:21.864Z,42.53
2019-04-10T18:08:53.551Z,41.27
2019-04-10T18:11:25.724Z,43.77
2019-04-10T18:13:55.596Z,43.07
2019-04-10T18:16:25.645Z,42.50
2019-04-10T18:18:55.902Z,47.13
2019-04-10T18:21:26.966Z,44.57
2019-04-10T18:24:00.063Z,42.97
2019-04-10T18:26:56.595Z,42.17
2019-04-10T18:29:27.413Z,41.80
2019-04-10T20:47:29.388Z,41.37
2019-04-10T20:49:59.578Z,50.33
2019-04-10T20:52:30.361Z,54.33
2019-04-10T20:55:01.402Z,54.38
2019-04-10T20:57:31.926Z,52.48
2019-04-10T21:00:01.835Z,52.98
2019-04-10T21:02:31.483Z,53.63
2019-04-10T21:05:06.391Z,51.18
2019-04-10T21:07:33.573Z,52.20
2019-04-10T21:10:02.763Z,51.92
2019-04-10T21:12:36.409Z,52.95
2019-04-10T21:15:08.920Z,52.90
2019-04-10T21:17:42.336Z,51.30
2019-04-10T21:20:13.703Z,50.73
2019-04-10T21:22:45.345Z,53.95
2019-04-10T21:25:14.993Z,52.33
2019-04-10T21:27:47.103Z,54.05
2019-04-10T21:30:33.911Z,53.83
2019-04-10T21:33:15.047Z,52.00
2019-04-10T21:35:45.616Z,51.00
2019-04-10T21:38:15.225Z,51.30
2019-04-10T21:40:45.384Z,53.20
2019-04-10T21:43:16.146Z,53.13
2019-04-10T21:45:47.562Z,53.95
2019-04-10T21:48:20.009Z,55.12
2019-04-10T21:50:51.567Z,55.03
2019-04-10T21:53:24.072Z,45.77
2019-04-10T21:55:55.526Z,42.20
2019-04-10T21:58:25.704Z,45.43
2019-04-10T22:01:09.902Z,53.30
2019-04-10T22:03:41.493Z,49.90
2019-04-10T22:06:31.686Z,52.03
2019-04-10T22:09:22.905Z,51.90
2019-04-10T22:11:55.321Z,50.87
2019-04-10T22:14:26.129Z,54.80
2019-04-10T22:16:58.187Z,53.58
2019-04-10T22:19:28.540Z,54.42
2019-04-10T22:21:57.953Z,54.00
2019-04-10T22:24:31.859Z,53.58
2019-04-10T22:27:03.041Z,52.27
2019-04-10T22:29:32.819Z,51.97
2019-04-10T22:32:04.085Z,54.08
2019-04-10T22:34:34.251Z,52.20
2019-04-10T22:37:04.274Z,52.10
2019-04-10T22:39:34.292Z,54.08
2019-04-10T22:42:04.008Z,54.50
2019-04-10T22:44:39.308Z,52.70
2019-04-10T22:47:05.306Z,52.10
2019-04-10T22:49:35.093Z,53.68
2019-04-10T22:52:04.715Z,52.67
2019-04-10T22:54:34.640Z,52.67
2019-04-10T22:57:04.766Z,50.78
2019-04-10T22:59:36.140Z,51.97
2019-04-10T23:02:11.331Z,52.03
2019-04-10T23:04:37.173Z,53.48
2019-04-10T23:07:07.279Z,50.73
2019-04-10T23:09:38.205Z,49.03
2019-04-10T23:12:09.843Z,50.65
2019-04-10T23:44:35.873Z,37.47
